sensor_id;sensor_type;location;lat;lon;timestamp;P1;durP1;ratioP1;P2;durP2;ratioP2
6475;SDS011;3271;51.910;5.840;2022-12-07T00:01:42;4.57;;;4.18;;
6475;SDS011;3271;51.910;5.840;2022-12-07T00:04:09;6.03;;;4.32;;
6475;SDS011;3271;51.910;5.840;2022-12-07T00:06:46;5.65;;;4.93;;
6475;SDS011;3271;51.910;5.840;2022-12-07T00:09:13;5.18;;;4.70;;
6475;SDS011;3271;51.910;5.840;2022-12-07T00:11:39;5.43;;;4.93;;
6475;SDS011;3271;51.910;5.840;2022-12-07T00:14:06;5.70;;;5.10;;
6475;SDS011;3271;51.910;5.840;2022-12-07T00:16:33;4.90;;;4.50;;
6475;SDS011;3271;51.910;5.840;2022-12-07T00:18:59;5.50;;;5.07;;
6475;SDS011;3271;51.910;5.840;2022-12-07T00:21:27;5.47;;;4.97;;
6475;SDS011;3271;51.910;5.840;2022-12-07T00:23:53;5.35;;;4.90;;
6475;SDS011;3271;51.910;5.840;2022-12-07T00:26:21;5.43;;;4.93;;
6475;SDS011;3271;51.910;5.840;2022-12-07T00:28:47;5.43;;;4.80;;
6475;SDS011;3271;51.910;5.840;2022-12-07T00:31:13;6.13;;;4.95;;
6475;SDS011;3271;51.910;5.840;2022-12-07T00:33:40;4.97;;;4.40;;
6475;SDS011;3271;51.910;5.840;2022-12-07T00:36:07;6.93;;;5.95;;
6475;SDS011;3271;51.910;5.840;2022-12-07T00:38:34;5.68;;;5.18;;
6475;SDS011;3271;51.910;5.840;2022-12-07T00:41:01;5.40;;;4.90;;
6475;SDS011;3271;51.910;5.840;2022-12-07T00:43:27;5.30;;;4.80;;
6475;SDS011;3271;51.910;5.840;2022-12-07T00:45:53;5.50;;;5.00;;
6475;SDS011;3271;51.910;5.840;2022-12-07T00:48:20;6.63;;;5.07;;
6475;SDS011;3271;51.910;5.840;2022-12-07T00:50:46;6.00;;;5.47;;
6475;SDS011;3271;51.910;5.840;2022-12-07T00:53:12;5.50;;;5.00;;
6475;SDS011;3271;51.910;5.840;2022-12-07T00:55:38;7.68;;;5.03;;
6475;SDS011;3271;51.910;5.840;2022-12-07T00:58:04;5.72;;;4.97;;
6475;SDS011;3271;51.910;5.840;2022-12-07T01:00:30;5.10;;;4.38;;
6475;SDS011;3271;51.910;5.840;2022-12-07T01:02:56;5.20;;;4.70;;
6475;SDS011;3271;51.910;5.840;2022-12-07T01:05:22;8.38;;;5.15;;
6475;SDS011;3271;51.910;5.840;2022-12-07T01:07:48;5.78;;;4.95;;
6475;SDS011;3271;51.910;5.840;2022-12-07T01:10:14;5.82;;;4.93;;
6475;SDS011;3271;51.910;5.840;2022-12-07T01:12:40;5.82;;;5.32;;
6475;SDS011;3271;51.910;5.840;2022-12-07T01:15:07;5.70;;;4.30;;
6475;SDS011;3271;51.910;5.840;2022-12-07T01:17:33;5.10;;;4.70;;
6475;SDS011;3271;51.910;5.840;2022-12-07T01:19:59;6.47;;;4.63;;
6475;SDS011;3271;51.910;5.840;2022-12-07T01:22:25;5.32;;;4.80;;
6475;SDS011;3271;51.910;5.840;2022-12-07T01:24:51;4.85;;;4.45;;
6475;SDS011;3271;51.910;5.840;2022-12-07T01:27:17;4.15;;;3.85;;
6475;SDS011;3271;51.910;5.840;2022-12-07T01:29:43;4.22;;;3.85;;
6475;SDS011;3271;51.910;5.840;2022-12-07T01:32:09;3.85;;;3.55;;
6475;SDS011;3271;51.910;5.840;2022-12-07T01:34:35;4.30;;;3.95;;
6475;SDS011;3271;51.910;5.840;2022-12-07T01:37:01;4.65;;;4.15;;
6475;SDS011;3271;51.910;5.840;2022-12-07T01:39:27;4.70;;;3.65;;
6475;SDS011;3271;51.910;5.840;2022-12-07T01:41:53;4.20;;;3.80;;
6475;SDS011;3271;51.910;5.840;2022-12-07T01:46:49;4.90;;;4.03;;
6475;SDS011;3271;51.910;5.840;2022-12-07T01:49:20;4.97;;;4.47;;
6475;SDS011;3271;51.910;5.840;2022-12-07T01:51:47;5.45;;;4.05;;
6475;SDS011;3271;51.910;5.840;2022-12-07T01:54:14;4.45;;;3.70;;
6475;SDS011;3271;51.910;5.840;2022-12-07T01:56:42;4.80;;;3.85;;
6475;SDS011;3271;51.910;5.840;2022-12-07T01:59:09;5.57;;;4.07;;
6475;SDS011;3271;51.910;5.840;2022-12-07T02:01:35;3.78;;;3.40;;
6475;SDS011;3271;51.910;5.840;2022-12-07T02:04:01;4.05;;;3.65;;
6475;SDS011;3271;51.910;5.840;2022-12-07T02:06:27;5.88;;;3.92;;
6475;SDS011;3271;51.910;5.840;2022-12-07T02:08:54;5.97;;;3.47;;
6475;SDS011;3271;51.910;5.840;2022-12-07T02:11:20;4.00;;;3.60;;
6475;SDS011;3271;51.910;5.840;2022-12-07T02:13:46;3.65;;;3.35;;
6475;SDS011;3271;51.910;5.840;2022-12-07T02:16:19;3.70;;;3.40;;
6475;SDS011;3271;51.910;5.840;2022-12-07T02:21:32;3.80;;;3.45;;
6475;SDS011;3271;51.910;5.840;2022-12-07T02:26:48;4.25;;;3.33;;
6475;SDS011;3271;51.910;5.840;2022-12-07T02:29:21;4.97;;;3.70;;
6475;SDS011;3271;51.910;5.840;2022-12-07T02:31:54;3.75;;;3.22;;
6475;SDS011;3271;51.910;5.840;2022-12-07T02:34:26;3.53;;;3.22;;
6475;SDS011;3271;51.910;5.840;2022-12-07T02:36:54;3.67;;;3.35;;
6475;SDS011;3271;51.910;5.840;2022-12-07T02:39:30;5.03;;;3.50;;
6475;SDS011;3271;51.910;5.840;2022-12-07T02:41:59;3.70;;;3.28;;
6475;SDS011;3271;51.910;5.840;2022-12-07T02:44:27;4.32;;;3.92;;
6475;SDS011;3271;51.910;5.840;2022-12-07T02:46:54;4.65;;;3.95;;
6475;SDS011;3271;51.910;5.840;2022-12-07T02:49:22;4.10;;;3.38;;
6475;SDS011;3271;51.910;5.840;2022-12-07T02:51:49;4.00;;;3.10;;
6475;SDS011;3271;51.910;5.840;2022-12-07T02:54:16;4.57;;;3.08;;
6475;SDS011;3271;51.910;5.840;2022-12-07T03:01:56;4.85;;;3.28;;
6475;SDS011;3271;51.910;5.840;2022-12-07T03:09:37;3.55;;;3.25;;
6475;SDS011;3271;51.910;5.840;2022-12-07T03:12:09;3.20;;;3.00;;
6475;SDS011;3271;51.910;5.840;2022-12-07T03:14:40;5.07;;;3.20;;
6475;SDS011;3271;51.910;5.840;2022-12-07T03:17:09;4.40;;;3.13;;
6475;SDS011;3271;51.910;5.840;2022-12-07T03:19:37;5.10;;;3.60;;
6475;SDS011;3271;51.910;5.840;2022-12-07T03:22:08;3.95;;;3.33;;
6475;SDS011;3271;51.910;5.840;2022-12-07T03:24:40;5.70;;;3.28;;
6475;SDS011;3271;51.910;5.840;2022-12-07T03:27:15;5.25;;;3.15;;
6475;SDS011;3271;51.910;5.840;2022-12-07T03:29:49;3.63;;;3.17;;
6475;SDS011;3271;51.910;5.840;2022-12-07T03:32:36;3.47;;;2.90;;
6475;SDS011;3271;51.910;5.840;2022-12-07T03:35:03;3.67;;;3.37;;
6475;SDS011;3271;51.910;5.840;2022-12-07T03:37:35;5.07;;;3.17;;
6475;SDS011;3271;51.910;5.840;2022-12-07T03:40:05;3.30;;;3.00;;
6475;SDS011;3271;51.910;5.840;2022-12-07T03:42:32;3.05;;;2.83;;
6475;SDS011;3271;51.910;5.840;2022-12-07T03:44:58;5.03;;;3.08;;
6475;SDS011;3271;51.910;5.840;2022-12-07T03:48:25;3.45;;;3.13;;
6475;SDS011;3271;51.910;5.840;2022-12-07T03:50:31;5.07;;;3.00;;
6475;SDS011;3271;51.910;5.840;2022-12-07T03:52:58;6.85;;;3.58;;
6475;SDS011;3271;51.910;5.840;2022-12-07T03:55:27;4.10;;;3.08;;
6475;SDS011;3271;51.910;5.840;2022-12-07T03:57:55;4.40;;;3.10;;
6475;SDS011;3271;51.910;5.840;2022-12-07T04:00:23;3.33;;;3.00;;
6475;SDS011;3271;51.910;5.840;2022-12-07T04:02:51;5.22;;;3.13;;
6475;SDS011;3271;51.910;5.840;2022-12-07T04:05:17;4.47;;;3.10;;
6475;SDS011;3271;51.910;5.840;2022-12-07T04:07:43;4.85;;;2.97;;
6475;SDS011;3271;51.910;5.840;2022-12-07T04:10:10;4.27;;;2.90;;
6475;SDS011;3271;51.910;5.840;2022-12-07T04:12:36;5.70;;;3.25;;
6475;SDS011;3271;51.910;5.840;2022-12-07T04:15:02;3.63;;;2.90;;
6475;SDS011;3271;51.910;5.840;2022-12-07T04:17:28;4.07;;;2.88;;
6475;SDS011;3271;51.910;5.840;2022-12-07T04:19:54;2.90;;;2.70;;
6475;SDS011;3271;51.910;5.840;2022-12-07T04:22:20;3.88;;;2.75;;
6475;SDS011;3271;51.910;5.840;2022-12-07T04:24:46;4.07;;;2.50;;
6475;SDS011;3271;51.910;5.840;2022-12-07T04:27:12;2.95;;;2.58;;
6475;SDS011;3271;51.910;5.840;2022-12-07T04:29:38;3.85;;;2.80;;
6475;SDS011;3271;51.910;5.840;2022-12-07T04:32:04;3.58;;;2.50;;
6475;SDS011;3271;51.910;5.840;2022-12-07T04:34:29;3.95;;;2.42;;
6475;SDS011;3271;51.910;5.840;2022-12-07T04:36:55;3.97;;;2.58;;
6475;SDS011;3271;51.910;5.840;2022-12-07T04:41:51;3.78;;;2.72;;
6475;SDS011;3271;51.910;5.840;2022-12-07T04:44:17;4.63;;;2.80;;
6475;SDS011;3271;51.910;5.840;2022-12-07T04:46:43;2.60;;;2.35;;
6475;SDS011;3271;51.910;5.840;2022-12-07T04:49:10;3.08;;;2.42;;
6475;SDS011;3271;51.910;5.840;2022-12-07T04:51:35;3.87;;;2.67;;
6475;SDS011;3271;51.910;5.840;2022-12-07T04:54:02;2.67;;;2.20;;
6475;SDS011;3271;51.910;5.840;2022-12-07T04:56:28;3.88;;;2.45;;
6475;SDS011;3271;51.910;5.840;2022-12-07T04:58:54;3.63;;;2.95;;
6475;SDS011;3271;51.910;5.840;2022-12-07T05:01:20;4.50;;;2.78;;
6475;SDS011;3271;51.910;5.840;2022-12-07T05:03:46;4.60;;;2.65;;
6475;SDS011;3271;51.910;5.840;2022-12-07T05:06:13;4.57;;;2.60;;
6475;SDS011;3271;51.910;5.840;2022-12-07T05:08:39;4.55;;;2.83;;
6475;SDS011;3271;51.910;5.840;2022-12-07T05:11:05;3.33;;;2.40;;
6475;SDS011;3271;51.910;5.840;2022-12-07T05:13:32;2.42;;;2.20;;
6475;SDS011;3271;51.910;5.840;2022-12-07T05:15:58;2.40;;;2.20;;
6475;SDS011;3271;51.910;5.840;2022-12-07T05:18:24;3.63;;;2.33;;
6475;SDS011;3271;51.910;5.840;2022-12-07T05:20:50;3.35;;;1.98;;
6475;SDS011;3271;51.910;5.840;2022-12-07T05:23:16;3.28;;;2.05;;
6475;SDS011;3271;51.910;5.840;2022-12-07T05:25:42;3.72;;;2.00;;
6475;SDS011;3271;51.910;5.840;2022-12-07T05:28:08;4.55;;;2.58;;
6475;SDS011;3271;51.910;5.840;2022-12-07T05:30:34;5.05;;;2.50;;
6475;SDS011;3271;51.910;5.840;2022-12-07T05:33:00;5.68;;;1.98;;
6475;SDS011;3271;51.910;5.840;2022-12-07T05:35:27;3.85;;;1.92;;
6475;SDS011;3271;51.910;5.840;2022-12-07T05:37:53;5.32;;;2.50;;
6475;SDS011;3271;51.910;5.840;2022-12-07T05:40:19;3.00;;;1.73;;
6475;SDS011;3271;51.910;5.840;2022-12-07T05:42:45;5.55;;;1.98;;
6475;SDS011;3271;51.910;5.840;2022-12-07T05:45:11;2.58;;;2.15;;
6475;SDS011;3271;51.910;5.840;2022-12-07T05:47:37;4.93;;;2.00;;
6475;SDS011;3271;51.910;5.840;2022-12-07T05:50:03;3.38;;;2.00;;
6475;SDS011;3271;51.910;5.840;2022-12-07T05:52:29;5.38;;;2.25;;
6475;SDS011;3271;51.910;5.840;2022-12-07T05:54:55;3.28;;;1.95;;
6475;SDS011;3271;51.910;5.840;2022-12-07T05:57:21;4.10;;;2.10;;
6475;SDS011;3271;51.910;5.840;2022-12-07T05:59:47;4.43;;;2.10;;
6475;SDS011;3271;51.910;5.840;2022-12-07T06:02:14;3.42;;;1.83;;
6475;SDS011;3271;51.910;5.840;2022-12-07T06:04:41;2.95;;;2.25;;
6475;SDS011;3271;51.910;5.840;2022-12-07T06:07:07;3.03;;;1.88;;
6475;SDS011;3271;51.910;5.840;2022-12-07T06:09:33;2.45;;;1.98;;
6475;SDS011;3271;51.910;5.840;2022-12-07T06:11:59;3.50;;;2.25;;
6475;SDS011;3271;51.910;5.840;2022-12-07T06:14:44;3.03;;;1.52;;
6475;SDS011;3271;51.910;5.840;2022-12-07T06:17:11;2.40;;;2.00;;
6475;SDS011;3271;51.910;5.840;2022-12-07T06:19:37;1.67;;;1.50;;
6475;SDS011;3271;51.910;5.840;2022-12-07T06:22:03;2.65;;;1.83;;
6475;SDS011;3271;51.910;5.840;2022-12-07T06:24:30;2.97;;;1.33;;
6475;SDS011;3271;51.910;5.840;2022-12-07T06:26:56;4.18;;;2.17;;
6475;SDS011;3271;51.910;5.840;2022-12-07T06:29:22;2.83;;;1.52;;
6475;SDS011;3271;51.910;5.840;2022-12-07T06:31:48;4.43;;;1.45;;
6475;SDS011;3271;51.910;5.840;2022-12-07T06:34:15;5.47;;;1.73;;
6475;SDS011;3271;51.910;5.840;2022-12-07T06:36:42;3.03;;;1.65;;
6475;SDS011;3271;51.910;5.840;2022-12-07T06:39:08;3.15;;;2.20;;
6475;SDS011;3271;51.910;5.840;2022-12-07T06:41:35;3.00;;;1.73;;
6475;SDS011;3271;51.910;5.840;2022-12-07T06:44:02;2.33;;;1.73;;
6475;SDS011;3271;51.910;5.840;2022-12-07T06:46:28;3.95;;;2.13;;
6475;SDS011;3271;51.910;5.840;2022-12-07T06:48:54;3.00;;;1.88;;
6475;SDS011;3271;51.910;5.840;2022-12-07T06:51:19;3.85;;;1.83;;
6475;SDS011;3271;51.910;5.840;2022-12-07T06:53:46;4.90;;;2.08;;
6475;SDS011;3271;51.910;5.840;2022-12-07T06:56:12;2.38;;;1.20;;
6475;SDS011;3271;51.910;5.840;2022-12-07T06:58:38;2.42;;;1.45;;
6475;SDS011;3271;51.910;5.840;2022-12-07T07:01:09;3.05;;;1.52;;
6475;SDS011;3271;51.910;5.840;2022-12-07T07:03:35;4.50;;;1.60;;
6475;SDS011;3271;51.910;5.840;2022-12-07T07:06:01;2.88;;;1.25;;
6475;SDS011;3271;51.910;5.840;2022-12-07T07:08:27;5.78;;;1.83;;
6475;SDS011;3271;51.910;5.840;2022-12-07T07:10:52;3.40;;;1.27;;
6475;SDS011;3271;51.910;5.840;2022-12-07T07:13:18;3.33;;;1.77;;
6475;SDS011;3271;51.910;5.840;2022-12-07T07:15:44;1.95;;;1.30;;
6475;SDS011;3271;51.910;5.840;2022-12-07T07:18:10;3.78;;;1.55;;
6475;SDS011;3271;51.910;5.840;2022-12-07T07:20:36;4.22;;;1.40;;
6475;SDS011;3271;51.910;5.840;2022-12-07T07:23:02;3.15;;;1.05;;
6475;SDS011;3271;51.910;5.840;2022-12-07T07:25:28;1.52;;;1.20;;
6475;SDS011;3271;51.910;5.840;2022-12-07T07:27:54;2.33;;;1.45;;
6475;SDS011;3271;51.910;5.840;2022-12-07T07:30:20;3.13;;;1.30;;
6475;SDS011;3271;51.910;5.840;2022-12-07T07:32:46;2.65;;;1.50;;
6475;SDS011;3271;51.910;5.840;2022-12-07T07:35:12;1.95;;;1.40;;
6475;SDS011;3271;51.910;5.840;2022-12-07T07:37:39;3.78;;;1.40;;
6475;SDS011;3271;51.910;5.840;2022-12-07T07:40:05;2.72;;;1.60;;
6475;SDS011;3271;51.910;5.840;2022-12-07T07:42:31;3.45;;;1.58;;
6475;SDS011;3271;51.910;5.840;2022-12-07T07:44:57;2.78;;;1.92;;
6475;SDS011;3271;51.910;5.840;2022-12-07T07:47:23;3.80;;;1.73;;
6475;SDS011;3271;51.910;5.840;2022-12-07T07:49:49;3.67;;;1.95;;
6475;SDS011;3271;51.910;5.840;2022-12-07T07:52:15;8.55;;;6.25;;
6475;SDS011;3271;51.910;5.840;2022-12-07T07:54:41;4.50;;;3.58;;
6475;SDS011;3271;51.910;5.840;2022-12-07T07:57:06;5.78;;;2.10;;
6475;SDS011;3271;51.910;5.840;2022-12-07T07:59:32;3.28;;;2.15;;
6475;SDS011;3271;51.910;5.840;2022-12-07T08:01:58;4.38;;;1.70;;
6475;SDS011;3271;51.910;5.840;2022-12-07T08:04:24;1.95;;;1.75;;
6475;SDS011;3271;51.910;5.840;2022-12-07T08:06:50;2.55;;;1.80;;
6475;SDS011;3271;51.910;5.840;2022-12-07T08:09:16;2.60;;;1.73;;
6475;SDS011;3271;51.910;5.840;2022-12-07T08:11:42;4.25;;;1.52;;
6475;SDS011;3271;51.910;5.840;2022-12-07T08:14:10;3.80;;;2.13;;
6475;SDS011;3271;51.910;5.840;2022-12-07T08:16:37;3.75;;;2.03;;
6475;SDS011;3271;51.910;5.840;2022-12-07T08:19:04;6.10;;;2.05;;
6475;SDS011;3271;51.910;5.840;2022-12-07T08:21:30;3.15;;;1.67;;
6475;SDS011;3271;51.910;5.840;2022-12-07T08:23:56;2.25;;;1.55;;
6475;SDS011;3271;51.910;5.840;2022-12-07T08:26:22;4.28;;;1.77;;
6475;SDS011;3271;51.910;5.840;2022-12-07T08:28:48;3.05;;;1.73;;
6475;SDS011;3271;51.910;5.840;2022-12-07T08:31:15;4.85;;;1.90;;
6475;SDS011;3271;51.910;5.840;2022-12-07T08:33:41;3.13;;;1.85;;
6475;SDS011;3271;51.910;5.840;2022-12-07T08:36:09;6.15;;;2.30;;
6475;SDS011;3271;51.910;5.840;2022-12-07T08:38:36;4.40;;;1.90;;
6475;SDS011;3271;51.910;5.840;2022-12-07T08:41:02;3.13;;;1.95;;
6475;SDS011;3271;51.910;5.840;2022-12-07T08:43:28;2.78;;;1.98;;
6475;SDS011;3271;51.910;5.840;2022-12-07T08:45:59;3.70;;;1.90;;
6475;SDS011;3271;51.910;5.840;2022-12-07T08:48:28;5.18;;;2.50;;
6475;SDS011;3271;51.910;5.840;2022-12-07T08:50:54;5.63;;;2.38;;
6475;SDS011;3271;51.910;5.840;2022-12-07T08:53:19;5.18;;;2.15;;
6475;SDS011;3271;51.910;5.840;2022-12-07T08:55:45;5.20;;;2.67;;
6475;SDS011;3271;51.910;5.840;2022-12-07T08:58:12;3.28;;;2.00;;
6475;SDS011;3271;51.910;5.840;2022-12-07T09:00:38;4.47;;;2.20;;
6475;SDS011;3271;51.910;5.840;2022-12-07T09:03:04;4.40;;;2.47;;
6475;SDS011;3271;51.910;5.840;2022-12-07T09:05:30;2.58;;;1.75;;
6475;SDS011;3271;51.910;5.840;2022-12-07T09:07:57;5.60;;;1.83;;
6475;SDS011;3271;51.910;5.840;2022-12-07T09:10:25;5.68;;;1.90;;
6475;SDS011;3271;51.910;5.840;2022-12-07T09:12:51;5.05;;;1.85;;
6475;SDS011;3271;51.910;5.840;2022-12-07T09:15:17;2.83;;;1.70;;
6475;SDS011;3271;51.910;5.840;2022-12-07T09:17:42;4.10;;;2.17;;
6475;SDS011;3271;51.910;5.840;2022-12-07T09:20:09;5.43;;;1.92;;
6475;SDS011;3271;51.910;5.840;2022-12-07T09:22:35;4.60;;;1.90;;
6475;SDS011;3271;51.910;5.840;2022-12-07T09:25:01;4.53;;;2.03;;
6475;SDS011;3271;51.910;5.840;2022-12-07T09:27:27;4.70;;;2.10;;
6475;SDS011;3271;51.910;5.840;2022-12-07T09:29:53;3.33;;;1.88;;
6475;SDS011;3271;51.910;5.840;2022-12-07T09:32:19;4.90;;;2.90;;
6475;SDS011;3271;51.910;5.840;2022-12-07T09:34:45;10.40;;;6.30;;
6475;SDS011;3271;51.910;5.840;2022-12-07T09:37:11;5.55;;;2.83;;
6475;SDS011;3271;51.910;5.840;2022-12-07T09:39:37;4.78;;;1.70;;
6475;SDS011;3271;51.910;5.840;2022-12-07T09:42:03;2.38;;;1.63;;
6475;SDS011;3271;51.910;5.840;2022-12-07T09:44:30;6.25;;;1.80;;
6475;SDS011;3271;51.910;5.840;2022-12-07T09:46:56;3.50;;;1.55;;
6475;SDS011;3271;51.910;5.840;2022-12-07T09:49:23;3.40;;;1.48;;
6475;SDS011;3271;51.910;5.840;2022-12-07T09:54:35;3.97;;;1.50;;
6475;SDS011;3271;51.910;5.840;2022-12-07T09:57:02;5.15;;;2.05;;
6475;SDS011;3271;51.910;5.840;2022-12-07T09:59:28;4.78;;;2.13;;
6475;SDS011;3271;51.910;5.840;2022-12-07T10:01:54;3.90;;;2.08;;
6475;SDS011;3271;51.910;5.840;2022-12-07T10:04:22;5.03;;;2.38;;
6475;SDS011;3271;51.910;5.840;2022-12-07T10:06:49;4.40;;;2.00;;
6475;SDS011;3271;51.910;5.840;2022-12-07T10:09:16;3.58;;;1.90;;
6475;SDS011;3271;51.910;5.840;2022-12-07T10:11:58;4.13;;;1.88;;
6475;SDS011;3271;51.910;5.840;2022-12-07T10:14:24;4.25;;;1.60;;
6475;SDS011;3271;51.910;5.840;2022-12-07T10:16:52;3.15;;;2.05;;
6475;SDS011;3271;51.910;5.840;2022-12-07T10:19:19;2.63;;;1.52;;
6475;SDS011;3271;51.910;5.840;2022-12-07T10:24:30;4.45;;;2.30;;
6475;SDS011;3271;51.910;5.840;2022-12-07T10:26:56;3.15;;;1.52;;
6475;SDS011;3271;51.910;5.840;2022-12-07T10:29:38;6.97;;;1.60;;
6475;SDS011;3271;51.910;5.840;2022-12-07T10:32:06;4.60;;;1.70;;
6475;SDS011;3271;51.910;5.840;2022-12-07T10:34:33;3.05;;;1.63;;
6475;SDS011;3271;51.910;5.840;2022-12-07T10:39:45;3.10;;;1.45;;
6475;SDS011;3271;51.910;5.840;2022-12-07T10:42:18;3.28;;;1.42;;
6475;SDS011;3271;51.910;5.840;2022-12-07T10:44:44;2.83;;;1.70;;
6475;SDS011;3271;51.910;5.840;2022-12-07T10:49:53;1.98;;;1.50;;
6475;SDS011;3271;51.910;5.840;2022-12-07T10:57:37;2.10;;;1.25;;
6475;SDS011;3271;51.910;5.840;2022-12-07T11:00:17;3.45;;;1.42;;
6475;SDS011;3271;51.910;5.840;2022-12-07T11:03:05;3.80;;;1.83;;
6475;SDS011;3271;51.910;5.840;2022-12-07T11:10:42;2.17;;;1.30;;
6475;SDS011;3271;51.910;5.840;2022-12-07T11:18:21;4.22;;;1.75;;
6475;SDS011;3271;51.910;5.840;2022-12-07T11:20:52;1.80;;;1.63;;
6475;SDS011;3271;51.910;5.840;2022-12-07T11:31:39;2.92;;;1.50;;
6475;SDS011;3271;51.910;5.840;2022-12-07T11:34:12;3.67;;;1.88;;
6475;SDS011;3271;51.910;5.840;2022-12-07T11:36:41;4.78;;;1.58;;
6475;SDS011;3271;51.910;5.840;2022-12-07T11:39:12;5.22;;;2.10;;
6475;SDS011;3271;51.910;5.840;2022-12-07T11:41:40;4.25;;;2.05;;
6475;SDS011;3271;51.910;5.840;2022-12-07T11:44:22;3.33;;;1.60;;
6475;SDS011;3271;51.910;5.840;2022-12-07T11:46:56;2.85;;;2.17;;
6475;SDS011;3271;51.910;5.840;2022-12-07T11:49:27;10.60;;;2.75;;
6475;SDS011;3271;51.910;5.840;2022-12-07T11:52:01;4.88;;;2.40;;
6475;SDS011;3271;51.910;5.840;2022-12-07T11:54:29;5.30;;;2.38;;
6475;SDS011;3271;51.910;5.840;2022-12-07T11:56:56;8.18;;;2.47;;
6475;SDS011;3271;51.910;5.840;2022-12-07T11:59:27;5.78;;;2.83;;
6475;SDS011;3271;51.910;5.840;2022-12-07T12:02:07;5.35;;;3.00;;
6475;SDS011;3271;51.910;5.840;2022-12-07T12:07:10;6.05;;;3.35;;
6475;SDS011;3271;51.910;5.840;2022-12-07T12:09:50;4.57;;;2.20;;
6475;SDS011;3271;51.910;5.840;2022-12-07T12:12:21;5.65;;;2.13;;
6475;SDS011;3271;51.910;5.840;2022-12-07T12:17:39;7.65;;;3.60;;
6475;SDS011;3271;51.910;5.840;2022-12-07T12:22:45;10.40;;;3.95;;
6475;SDS011;3271;51.910;5.840;2022-12-07T12:25:18;4.32;;;3.15;;
6475;SDS011;3271;51.910;5.840;2022-12-07T12:27:45;8.00;;;3.55;;
6475;SDS011;3271;51.910;5.840;2022-12-07T12:30:33;6.60;;;3.88;;
6475;SDS011;3271;51.910;5.840;2022-12-07T12:33:04;9.00;;;4.05;;
6475;SDS011;3271;51.910;5.840;2022-12-07T12:35:37;7.70;;;3.72;;
6475;SDS011;3271;51.910;5.840;2022-12-07T12:40:47;5.93;;;2.90;;
6475;SDS011;3271;51.910;5.840;2022-12-07T12:49:37;3.00;;;2.08;;
6475;SDS011;3271;51.910;5.840;2022-12-07T12:51:55;5.18;;;1.48;;
6475;SDS011;3271;51.910;5.840;2022-12-07T12:54:23;3.15;;;1.30;;
6475;SDS011;3271;51.910;5.840;2022-12-07T12:59:38;3.00;;;1.33;;
6475;SDS011;3271;51.910;5.840;2022-12-07T13:04:56;2.92;;;1.33;;
6475;SDS011;3271;51.910;5.840;2022-12-07T13:10:20;3.42;;;1.25;;
6475;SDS011;3271;51.910;5.840;2022-12-07T13:15:39;2.40;;;1.35;;
6475;SDS011;3271;51.910;5.840;2022-12-07T13:20:52;1.95;;;1.10;;
6475;SDS011;3271;51.910;5.840;2022-12-07T13:23:22;2.53;;;1.20;;
6475;SDS011;3271;51.910;5.840;2022-12-07T13:25:51;2.65;;;1.60;;
6475;SDS011;3271;51.910;5.840;2022-12-07T13:28:20;1.88;;;1.20;;
6475;SDS011;3271;51.910;5.840;2022-12-07T13:31:22;2.53;;;1.10;;
6475;SDS011;3271;51.910;5.840;2022-12-07T13:33:39;1.88;;;1.17;;
6475;SDS011;3271;51.910;5.840;2022-12-07T13:36:05;3.38;;;1.50;;
6475;SDS011;3271;51.910;5.840;2022-12-07T13:38:38;4.32;;;1.10;;
6475;SDS011;3271;51.910;5.840;2022-12-07T13:41:13;3.63;;;1.73;;
6475;SDS011;3271;51.910;5.840;2022-12-07T13:43:53;2.50;;;1.33;;
6475;SDS011;3271;51.910;5.840;2022-12-07T13:46:22;1.98;;;1.10;;
6475;SDS011;3271;51.910;5.840;2022-12-07T13:48:50;3.13;;;1.23;;
6475;SDS011;3271;51.910;5.840;2022-12-07T13:51:20;2.85;;;1.20;;
6475;SDS011;3271;51.910;5.840;2022-12-07T13:53:47;3.88;;;1.45;;
6475;SDS011;3271;51.910;5.840;2022-12-07T13:56:13;1.17;;;1.00;;
6475;SDS011;3271;51.910;5.840;2022-12-07T13:58:40;2.83;;;1.17;;
6475;SDS011;3271;51.910;5.840;2022-12-07T14:01:07;3.55;;;1.17;;
6475;SDS011;3271;51.910;5.840;2022-12-07T14:03:34;3.53;;;1.40;;
6475;SDS011;3271;51.910;5.840;2022-12-07T14:08:30;2.92;;;1.88;;
6475;SDS011;3271;51.910;5.840;2022-12-07T14:10:56;3.22;;;1.20;;
6475;SDS011;3271;51.910;5.840;2022-12-07T14:15:51;4.07;;;2.05;;
6475;SDS011;3271;51.910;5.840;2022-12-07T14:18:25;2.97;;;1.33;;
6475;SDS011;3271;51.910;5.840;2022-12-07T14:20:52;2.22;;;1.30;;
6475;SDS011;3271;51.910;5.840;2022-12-07T14:23:27;2.28;;;1.17;;
6475;SDS011;3271;51.910;5.840;2022-12-07T14:25:53;2.38;;;1.50;;
6475;SDS011;3271;51.910;5.840;2022-12-07T14:28:26;1.20;;;1.10;;
6475;SDS011;3271;51.910;5.840;2022-12-07T14:30:52;2.88;;;1.60;;
6475;SDS011;3271;51.910;5.840;2022-12-07T14:33:18;1.52;;;1.08;;
6475;SDS011;3271;51.910;5.840;2022-12-07T14:35:45;2.55;;;1.20;;
6475;SDS011;3271;51.910;5.840;2022-12-07T14:38:10;2.22;;;1.25;;
6475;SDS011;3271;51.910;5.840;2022-12-07T14:40:36;2.35;;;1.52;;
6475;SDS011;3271;51.910;5.840;2022-12-07T14:43:10;1.52;;;1.30;;
6475;SDS011;3271;51.910;5.840;2022-12-07T14:45:37;3.03;;;1.20;;
6475;SDS011;3271;51.910;5.840;2022-12-07T14:48:04;1.52;;;1.15;;
6475;SDS011;3271;51.910;5.840;2022-12-07T14:50:30;3.35;;;1.27;;
6475;SDS011;3271;51.910;5.840;2022-12-07T14:53:01;3.78;;;1.70;;
6475;SDS011;3271;51.910;5.840;2022-12-07T14:55:31;3.28;;;1.40;;
6475;SDS011;3271;51.910;5.840;2022-12-07T14:57:57;2.33;;;1.58;;
6475;SDS011;3271;51.910;5.840;2022-12-07T15:00:24;4.03;;;1.65;;
6475;SDS011;3271;51.910;5.840;2022-12-07T15:02:51;3.55;;;2.00;;
6475;SDS011;3271;51.910;5.840;2022-12-07T15:05:17;3.55;;;1.85;;
6475;SDS011;3271;51.910;5.840;2022-12-07T15:07:44;4.07;;;1.88;;
6475;SDS011;3271;51.910;5.840;2022-12-07T15:10:17;3.33;;;1.77;;
6475;SDS011;3271;51.910;5.840;2022-12-07T15:12:44;5.07;;;1.88;;
6475;SDS011;3271;51.910;5.840;2022-12-07T15:15:10;3.20;;;1.80;;
6475;SDS011;3271;51.910;5.840;2022-12-07T15:17:36;3.10;;;1.70;;
6475;SDS011;3271;51.910;5.840;2022-12-07T15:20:02;4.60;;;2.60;;
6475;SDS011;3271;51.910;5.840;2022-12-07T15:22:28;2.13;;;1.60;;
6475;SDS011;3271;51.910;5.840;2022-12-07T15:24:56;3.03;;;1.77;;
6475;SDS011;3271;51.910;5.840;2022-12-07T15:27:22;5.57;;;2.25;;
6475;SDS011;3271;51.910;5.840;2022-12-07T15:29:48;4.88;;;2.20;;
6475;SDS011;3271;51.910;5.840;2022-12-07T15:32:13;5.85;;;1.95;;
6475;SDS011;3271;51.910;5.840;2022-12-07T15:34:39;4.13;;;1.83;;
6475;SDS011;3271;51.910;5.840;2022-12-07T15:37:06;3.08;;;1.50;;
6475;SDS011;3271;51.910;5.840;2022-12-07T15:39:32;3.45;;;1.63;;
6475;SDS011;3271;51.910;5.840;2022-12-07T15:41:58;3.47;;;1.80;;
6475;SDS011;3271;51.910;5.840;2022-12-07T15:44:24;1.73;;;1.40;;
6475;SDS011;3271;51.910;5.840;2022-12-07T15:47:08;4.75;;;1.92;;
6475;SDS011;3271;51.910;5.840;2022-12-07T15:49:34;3.58;;;1.98;;
6475;SDS011;3271;51.910;5.840;2022-12-07T15:52:00;2.55;;;1.65;;
6475;SDS011;3271;51.910;5.840;2022-12-07T15:54:27;3.13;;;1.35;;
6475;SDS011;3271;51.910;5.840;2022-12-07T15:56:53;2.95;;;1.40;;
6475;SDS011;3271;51.910;5.840;2022-12-07T15:59:19;3.03;;;1.27;;
6475;SDS011;3271;51.910;5.840;2022-12-07T16:01:45;3.92;;;1.42;;
6475;SDS011;3271;51.910;5.840;2022-12-07T16:04:11;3.88;;;1.25;;
6475;SDS011;3271;51.910;5.840;2022-12-07T16:06:37;2.92;;;1.60;;
6475;SDS011;3271;51.910;5.840;2022-12-07T16:09:04;2.13;;;1.30;;
6475;SDS011;3271;51.910;5.840;2022-12-07T16:11:30;2.42;;;1.20;;
6475;SDS011;3271;51.910;5.840;2022-12-07T16:13:56;4.38;;;1.27;;
6475;SDS011;3271;51.910;5.840;2022-12-07T16:16:22;1.58;;;1.02;;
6475;SDS011;3271;51.910;5.840;2022-12-07T16:18:48;2.20;;;1.33;;
6475;SDS011;3271;51.910;5.840;2022-12-07T16:21:15;1.48;;;0.95;;
6475;SDS011;3271;51.910;5.840;2022-12-07T16:23:41;2.60;;;1.10;;
6475;SDS011;3271;51.910;5.840;2022-12-07T16:26:08;4.05;;;1.55;;
6475;SDS011;3271;51.910;5.840;2022-12-07T16:28:35;1.77;;;1.30;;
6475;SDS011;3271;51.910;5.840;2022-12-07T16:31:08;2.42;;;1.50;;
6475;SDS011;3271;51.910;5.840;2022-12-07T16:33:35;3.88;;;1.40;;
6475;SDS011;3271;51.910;5.840;2022-12-07T16:36:01;2.40;;;1.45;;
6475;SDS011;3271;51.910;5.840;2022-12-07T16:38:27;2.58;;;1.48;;
6475;SDS011;3271;51.910;5.840;2022-12-07T16:40:53;4.90;;;1.60;;
6475;SDS011;3271;51.910;5.840;2022-12-07T16:43:19;1.95;;;1.40;;
6475;SDS011;3271;51.910;5.840;2022-12-07T16:45:46;2.97;;;1.30;;
6475;SDS011;3271;51.910;5.840;2022-12-07T16:48:12;2.55;;;1.70;;
6475;SDS011;3271;51.910;5.840;2022-12-07T16:50:39;3.13;;;1.58;;